createdAt,value
2019-06-08T00:00:07.046Z,99.90
2019-06-08T00:02:35.470Z,99.90
2019-06-08T00:05:05.637Z,99.90
2019-06-08T00:07:34.034Z,99.90
2019-06-08T00:10:02.504Z,99.90
2019-06-08T00:12:30.925Z,99.90
2019-06-08T00:14:59.339Z,99.90
2019-06-08T00:17:38.074Z,99.90
2019-06-08T00:19:57.898Z,99.90
2019-06-08T00:22:26.296Z,99.90
2019-06-08T00:24:54.702Z,99.90
2019-06-08T00:27:24.518Z,99.90
2019-06-08T00:29:53.025Z,99.90
2019-06-08T00:32:22.603Z,99.90
2019-06-08T00:34:51.246Z,99.90
2019-06-08T00:37:20.784Z,99.90
2019-06-08T00:39:49.374Z,99.90
2019-06-08T00:42:19.188Z,99.90
2019-06-08T00:44:47.860Z,99.90
2019-06-08T00:47:16.393Z,99.90
2019-06-08T00:49:44.847Z,99.90
2019-06-08T00:52:13.250Z,99.90
2019-06-08T00:54:41.645Z,99.90
2019-06-08T00:57:10.106Z,99.90
2019-06-08T00:59:38.499Z,99.90
2019-06-08T01:02:06.907Z,99.90
2019-06-08T01:04:35.546Z,99.90
2019-06-08T01:07:04.113Z,99.90
2019-06-08T01:09:32.678Z,99.90
2019-06-08T01:12:02.071Z,99.90
2019-06-08T01:14:30.474Z,99.90
2019-06-08T01:16:58.876Z,99.90
2019-06-08T01:19:27.463Z,99.90
2019-06-08T01:21:56.176Z,99.90
2019-06-08T01:24:25.676Z,99.90
2019-06-08T01:26:54.154Z,99.90
2019-06-08T01:29:22.547Z,99.90
2019-06-08T01:31:50.940Z,99.90
2019-06-08T01:34:20.557Z,99.90
2019-06-08T01:36:49.121Z,99.90
2019-06-08T01:39:17.796Z,99.90
2019-06-08T01:41:46.218Z,99.90
2019-06-08T01:44:14.630Z,99.90
2019-06-08T01:46:43.027Z,99.90
2019-06-08T01:49:11.675Z,99.90
2019-06-08T01:51:40.075Z,99.90
2019-06-08T01:54:08.478Z,99.90
2019-06-08T01:56:36.872Z,99.90
2019-06-08T01:59:05.353Z,99.90
2019-06-08T02:01:34.225Z,99.90
2019-06-08T02:04:02.938Z,99.90
2019-06-08T02:06:32.457Z,99.90
2019-06-08T02:09:01.314Z,99.90
2019-06-08T02:11:30.847Z,99.90
2019-06-08T02:13:59.571Z,99.90
2019-06-08T02:16:29.625Z,99.90
2019-06-08T02:18:58.315Z,99.90
2019-06-08T02:21:26.813Z,99.90
2019-06-08T02:23:55.277Z,99.90
2019-06-08T02:26:26.976Z,99.90
2019-06-08T02:28:53.790Z,99.90
2019-06-08T02:31:28.169Z,99.90
2019-06-08T02:33:56.573Z,99.90
2019-06-08T02:36:24.966Z,99.90
2019-06-08T02:38:53.426Z,99.90
2019-06-08T02:41:21.854Z,99.90
2019-06-08T02:43:50.379Z,99.90
2019-06-08T02:46:18.775Z,99.90
2019-06-08T02:49:03.652Z,99.90
2019-06-08T02:51:18.417Z,99.90
2019-06-08T02:53:46.811Z,99.90
2019-06-08T02:56:15.283Z,99.90
2019-06-08T02:58:43.751Z,99.90
2019-06-08T03:01:13.915Z,99.90
2019-06-08T03:03:44.077Z,99.90
2019-06-08T03:06:14.103Z,99.90
2019-06-08T03:08:44.025Z,99.90
2019-06-08T03:11:13.845Z,99.90
2019-06-08T03:13:44.339Z,99.90
2019-06-08T03:16:12.758Z,99.90
2019-06-08T03:18:42.611Z,99.90
2019-06-08T03:21:11.417Z,99.90
2019-06-08T03:23:41.507Z,99.90
2019-06-08T03:26:09.943Z,99.90
2019-06-08T03:28:39.976Z,99.90
2019-06-08T03:31:08.783Z,99.90
2019-06-08T03:33:45.339Z,99.90
2019-06-08T03:36:07.348Z,99.90
2019-06-08T03:38:35.878Z,99.90
2019-06-08T03:41:04.362Z,99.90
2019-06-08T03:43:32.761Z,99.90
2019-06-08T03:46:01.153Z,99.90
2019-06-08T03:48:29.559Z,99.90
2019-06-08T03:50:57.955Z,99.90
2019-06-08T03:53:26.352Z,99.90
2019-06-08T03:55:54.766Z,99.90
2019-06-08T03:58:23.162Z,99.90
2019-06-08T04:00:51.807Z,99.90
2019-06-08T04:03:20.478Z,99.90
2019-06-08T04:05:50.065Z,99.90
2019-06-08T04:08:18.602Z,99.90
2019-06-08T04:10:47.077Z,99.90
2019-06-08T04:13:15.478Z,99.90
2019-06-08T04:15:50.254Z,99.90
2019-06-08T04:18:18.923Z,99.90
2019-06-08T04:20:48.829Z,99.90
2019-06-08T04:23:17.447Z,99.90
2019-06-08T04:25:47.679Z,99.90
2019-06-08T04:28:15.976Z,99.90
2019-06-08T04:30:45.307Z,99.90
2019-06-08T04:33:14.742Z,99.90
2019-06-08T04:35:45.163Z,99.90
2019-06-08T04:38:13.880Z,99.90
2019-06-08T04:40:43.512Z,99.90
2019-06-08T04:43:12.028Z,99.90
2019-06-08T04:45:41.161Z,99.90
2019-06-08T04:48:10.545Z,99.90
2019-06-08T04:50:40.734Z,99.90
2019-06-08T04:53:09.065Z,99.90
2019-06-08T04:55:38.834Z,99.90
2019-06-08T04:58:07.610Z,99.90
2019-06-08T05:00:36.246Z,99.90
2019-06-08T05:03:04.733Z,99.90
2019-06-08T05:05:33.150Z,99.90
2019-06-08T05:08:01.778Z,99.90
2019-06-08T05:10:30.169Z,99.90
2019-06-08T05:12:58.561Z,99.90
2019-06-08T05:15:26.965Z,99.90
2019-06-08T05:17:55.378Z,99.90
2019-06-08T05:20:37.600Z,99.90
2019-06-08T05:22:54.056Z,99.90
2019-06-08T05:25:22.563Z,99.90
2019-06-08T05:27:50.946Z,99.90
2019-06-08T05:30:19.796Z,99.90
2019-06-08T05:32:49.556Z,99.90
2019-06-08T05:35:18.207Z,99.90
2019-06-08T05:37:47.763Z,99.90
2019-06-08T05:40:16.649Z,99.90
2019-06-08T05:42:45.725Z,99.90
2019-06-08T05:45:14.779Z,99.90
2019-06-08T05:47:43.891Z,99.90
2019-06-08T05:50:12.534Z,99.90
2019-06-08T05:52:41.884Z,99.90
2019-06-08T05:55:10.458Z,99.90
2019-06-08T05:57:40.023Z,99.90
2019-06-08T06:00:10.244Z,99.90
2019-06-08T06:02:40.083Z,99.90
2019-06-08T06:05:08.920Z,99.90
2019-06-08T06:07:37.320Z,99.90
2019-06-08T06:10:05.962Z,99.90
2019-06-08T06:12:34.380Z,99.90
2019-06-08T06:15:03.447Z,99.90
2019-06-08T06:17:32.090Z,99.90
2019-06-08T06:20:00.634Z,99.90
2019-06-08T06:22:29.027Z,99.90
2019-06-08T06:24:57.516Z,99.90
2019-06-08T06:27:25.917Z,99.90
2019-06-08T06:29:54.719Z,99.90
2019-06-08T06:32:25.299Z,99.90
2019-06-08T06:34:53.772Z,99.90
2019-06-08T06:47:54.647Z,99.90
2019-06-08T06:50:23.093Z,99.90
2019-06-08T06:52:52.845Z,99.90
2019-06-08T06:55:25.256Z,99.90
2019-06-08T06:57:53.541Z,99.90
2019-06-08T07:00:32.492Z,99.90
2019-06-08T07:03:01.962Z,99.90
2019-06-08T07:05:30.701Z,99.90
2019-06-08T07:08:01.203Z,99.90
2019-06-08T07:10:29.638Z,99.90
2019-06-08T07:12:58.037Z,99.90
2019-06-08T07:15:30.488Z,99.90
2019-06-08T07:17:58.919Z,99.90
2019-06-08T07:20:29.310Z,99.90
2019-06-08T07:22:58.999Z,99.90
2019-06-08T07:25:27.575Z,99.90
2019-06-08T07:28:04.930Z,99.90
2019-06-08T07:30:33.447Z,99.90
2019-06-08T07:33:01.872Z,99.90
2019-06-08T07:35:37.411Z,99.90
2019-06-08T07:38:09.233Z,99.90
2019-06-08T07:40:39.278Z,99.90
2019-06-08T07:43:09.362Z,99.90
2019-06-08T07:45:37.868Z,99.90
2019-06-08T07:48:06.448Z,99.90
2019-06-08T07:50:35.116Z,99.90
2019-06-08T07:53:03.700Z,99.90
2019-06-08T07:55:32.510Z,99.90
2019-06-08T07:58:01.266Z,99.90
2019-06-08T08:00:29.736Z,99.90
2019-06-08T08:02:58.323Z,99.90
2019-06-08T08:05:26.778Z,99.90
2019-06-08T08:07:55.166Z,99.90
2019-06-08T08:10:23.672Z,99.90
2019-06-08T08:12:52.718Z,99.90
2019-06-08T08:15:21.527Z,99.90
2019-06-08T08:17:52.269Z,99.90
2019-06-08T08:20:21.071Z,99.90
2019-06-08T08:22:54.318Z,99.90
2019-06-08T08:25:21.206Z,99.90
2019-06-08T08:27:50.784Z,99.90
2019-06-08T08:30:22.651Z,99.90
2019-06-08T08:33:03.014Z,99.90
2019-06-08T08:35:31.062Z,99.90
2019-06-08T08:38:03.889Z,99.90
2019-06-08T08:40:30.381Z,99.90
2019-06-08T08:43:01.469Z,99.90
2019-06-08T08:45:29.182Z,99.90
2019-06-08T08:48:14.428Z,99.90
2019-06-08T08:50:28.329Z,99.90
2019-06-08T08:53:00.344Z,99.90
2019-06-08T08:55:30.115Z,99.90
2019-06-08T08:57:59.409Z,99.90
2019-06-08T09:00:29.544Z,99.90
2019-06-08T09:03:28.901Z,99.90
2019-06-08T09:05:33.326Z,99.90
2019-06-08T09:08:03.697Z,99.90
2019-06-08T09:10:31.994Z,99.90
2019-06-08T09:13:04.440Z,99.30
2019-06-08T09:15:32.223Z,96.10
2019-06-08T09:18:03.698Z,97.20
2019-06-08T09:20:34.424Z,97.30
2019-06-08T09:23:11.676Z,96.80
2019-06-08T09:25:33.043Z,95.80
2019-06-08T09:28:04.872Z,95.70
2019-06-08T09:30:38.529Z,95.10
2019-06-08T09:36:01.019Z,93.30
2019-06-08T09:38:28.737Z,94.80
2019-06-08T09:41:01.241Z,93.10
2019-06-08T09:43:30.043Z,93.70
2019-06-08T09:46:00.566Z,94.20
2019-06-08T09:48:29.011Z,94.50
2019-06-08T09:50:59.881Z,95.70
2019-06-08T09:53:36.916Z,95.90
2019-06-08T09:56:02.322Z,94.70
2019-06-08T09:58:29.079Z,95.10
2019-06-08T10:01:02.040Z,94.40
2019-06-08T10:03:31.130Z,93.10
2019-06-08T10:06:05.686Z,92.90
2019-06-08T10:11:40.256Z,92.70
2019-06-08T10:14:11.798Z,90.60
2019-06-08T10:16:41.264Z,91.40
2019-06-08T10:19:10.449Z,90.90
2019-06-08T10:21:42.879Z,93.40
2019-06-08T10:24:09.935Z,90.30
2019-06-08T10:26:38.638Z,90.00
2019-06-08T10:29:10.694Z,91.20
2019-06-08T10:31:43.450Z,91.30
2019-06-08T10:34:11.089Z,91.10
2019-06-08T10:36:40.122Z,93.40
2019-06-08T10:39:11.442Z,91.60
2019-06-08T10:41:44.920Z,90.00
2019-06-08T10:44:14.976Z,84.90
2019-06-08T10:46:50.004Z,88.50
2019-06-08T10:49:18.870Z,90.40
2019-06-08T10:51:48.799Z,92.00
2019-06-08T10:54:23.447Z,86.10
2019-06-08T10:57:02.482Z,85.80
2019-06-08T10:59:37.281Z,83.20
2019-06-08T11:02:09.593Z,85.30
2019-06-08T11:04:38.650Z,88.00
2019-06-08T11:07:13.289Z,89.50
2019-06-08T11:09:38.429Z,86.70
2019-06-08T11:12:14.961Z,88.20
2019-06-08T11:14:42.098Z,87.20
2019-06-08T11:17:11.322Z,87.50
2019-06-08T11:19:48.025Z,88.30
2019-06-08T11:22:18.566Z,88.90
2019-06-08T11:24:50.232Z,87.50
2019-06-08T11:27:18.883Z,84.00
2019-06-08T11:29:47.779Z,87.60
2019-06-08T11:32:18.356Z,86.60
2019-06-08T11:34:48.815Z,85.30
2019-06-08T11:37:20.792Z,85.80
2019-06-08T11:39:49.122Z,83.70
2019-06-08T11:42:19.149Z,86.70
2019-06-08T11:44:47.960Z,86.50
2019-06-08T11:47:19.371Z,84.10
2019-06-08T11:49:50.064Z,85.10
2019-06-08T11:52:19.009Z,85.80
2019-06-08T11:54:48.057Z,89.50
2019-06-08T11:57:19.496Z,90.70
2019-06-08T11:59:49.454Z,83.30
2019-06-08T12:02:21.073Z,89.40
2019-06-08T12:04:53.592Z,82.90
2019-06-08T12:07:22.152Z,82.70
2019-06-08T12:12:39.795Z,86.90
2019-06-08T12:15:21.188Z,84.50
2019-06-08T12:17:48.245Z,84.00
2019-06-08T12:20:19.797Z,82.80
2019-06-08T12:22:48.360Z,83.50
2019-06-08T12:25:18.852Z,83.10
2019-06-08T12:27:49.863Z,83.10
2019-06-08T12:30:25.465Z,84.30
2019-06-08T12:32:51.579Z,91.00
2019-06-08T12:35:23.287Z,78.90
2019-06-08T12:37:51.847Z,77.90
2019-06-08T12:40:20.930Z,82.80
2019-06-08T12:42:49.500Z,80.00
2019-06-08T12:45:20.019Z,83.70
2019-06-08T12:47:55.898Z,81.50
2019-06-08T12:50:28.183Z,84.80
2019-06-08T12:52:58.340Z,84.40
2019-06-08T12:55:37.748Z,84.10
2019-06-08T12:58:12.994Z,84.90
2019-06-08T13:00:42.294Z,86.10
2019-06-08T13:03:11.696Z,83.50
2019-06-08T13:05:43.772Z,80.80
2019-06-08T13:08:13.439Z,80.40
2019-06-08T13:10:44.260Z,78.90
2019-06-08T13:13:12.905Z,82.50
2019-06-08T13:15:43.903Z,82.70
2019-06-08T13:18:15.210Z,81.40
2019-06-08T13:20:43.895Z,82.80
2019-06-08T13:23:13.074Z,80.10
2019-06-08T13:25:44.568Z,81.40
2019-06-08T13:28:19.408Z,81.00
2019-06-08T13:30:47.864Z,80.30
2019-06-08T13:33:16.737Z,82.00
2019-06-08T13:35:48.310Z,82.60
2019-06-08T13:38:21.915Z,82.40
2019-06-08T13:43:40.537Z,83.10
2019-06-08T13:46:08.972Z,80.90
2019-06-08T13:48:41.458Z,81.60
2019-06-08T13:51:11.870Z,82.50
2019-06-08T13:53:40.362Z,82.40
2019-06-08T13:56:08.843Z,81.40
2019-06-08T13:58:38.213Z,81.90
2019-06-08T14:01:09.944Z,81.60
2019-06-08T14:03:39.390Z,80.60
2019-06-08T14:06:07.950Z,80.90
2019-06-08T14:08:38.652Z,82.00
2019-06-08T14:11:08.294Z,86.30
2019-06-08T14:13:39.811Z,83.80
2019-06-08T14:16:16.020Z,82.00
2019-06-08T14:18:48.627Z,85.60
2019-06-08T14:21:21.564Z,86.20
2019-06-08T14:23:48.417Z,84.60
2019-06-08T14:26:20.139Z,82.10
2019-06-08T14:28:50.489Z,83.00
2019-06-08T14:31:23.974Z,81.90
2019-06-08T14:33:53.591Z,85.30
2019-06-08T14:36:25.817Z,86.30
2019-06-08T14:38:53.797Z,86.80
2019-06-08T14:41:22.754Z,83.10
2019-06-08T14:44:02.845Z,84.10
2019-06-08T14:46:41.157Z,86.10
2019-06-08T14:49:07.055Z,87.60
2019-06-08T14:51:49.044Z,86.10
2019-06-08T14:54:24.364Z,87.30
2019-06-08T14:56:57.543Z,88.70
2019-06-08T14:59:31.735Z,88.30
2019-06-08T15:02:01.733Z,84.70
2019-06-08T15:04:35.964Z,86.30
2019-06-08T15:07:00.634Z,87.60
2019-06-08T15:09:29.856Z,86.60
2019-06-08T15:11:58.762Z,87.50
2019-06-08T15:14:38.550Z,87.50
2019-06-08T15:17:01.118Z,88.90
2019-06-08T15:19:32.601Z,87.30
2019-06-08T15:22:03.155Z,87.10
2019-06-08T15:24:33.001Z,86.00
2019-06-08T15:27:01.551Z,85.30
2019-06-08T15:29:31.344Z,86.70
2019-06-08T15:32:00.168Z,84.80
2019-06-08T15:34:32.944Z,84.70
2019-06-08T15:37:03.207Z,86.10
2019-06-08T15:39:39.151Z,86.70
2019-06-08T15:42:08.323Z,88.60
2019-06-08T15:44:39.435Z,88.70
2019-06-08T15:47:12.330Z,88.00
2019-06-08T15:49:50.188Z,90.20
2019-06-08T15:52:20.632Z,85.80
2019-06-08T15:54:49.204Z,87.10
2019-06-08T15:57:19.411Z,85.00
2019-06-08T15:59:49.264Z,86.10
2019-06-08T16:02:19.522Z,84.10
2019-06-08T16:04:48.107Z,86.20
2019-06-08T16:07:16.987Z,88.00
2019-06-08T16:09:45.742Z,86.40
2019-06-08T16:12:14.427Z,88.70
2019-06-08T16:14:43.138Z,88.60
2019-06-08T16:17:11.599Z,87.90
2019-06-08T16:19:40.136Z,89.90
2019-06-08T16:22:08.743Z,88.30
2019-06-08T16:24:37.251Z,88.50
2019-06-08T16:27:05.717Z,90.30
2019-06-08T16:29:35.142Z,90.00
2019-06-08T16:32:03.767Z,90.10
2019-06-08T16:34:33.515Z,89.10
2019-06-08T16:37:02.143Z,88.30
2019-06-08T16:39:33.334Z,88.00
2019-06-08T16:42:02.156Z,88.30
2019-06-08T16:44:31.963Z,88.30
2019-06-08T16:47:02.250Z,88.70
2019-06-08T16:49:31.215Z,90.20
2019-06-08T16:52:02.360Z,88.10
2019-06-08T16:54:32.708Z,90.40
2019-06-08T16:57:10.166Z,89.20
2019-06-08T16:59:34.360Z,89.60
2019-06-08T17:02:03.075Z,86.80
2019-06-08T17:04:33.125Z,86.40
2019-06-08T17:07:02.009Z,89.80
2019-06-08T17:09:32.357Z,90.80
2019-06-08T17:12:02.368Z,90.10
2019-06-08T17:14:31.953Z,89.80
2019-06-08T17:17:00.546Z,89.80
2019-06-08T17:19:31.923Z,89.50
2019-06-08T17:22:00.607Z,89.40
2019-06-08T17:24:30.276Z,91.10
2019-06-08T17:26:58.965Z,90.40
2019-06-08T17:29:29.057Z,90.90
2019-06-08T17:31:58.763Z,91.80
2019-06-08T17:37:14.788Z,92.70
2019-06-08T17:39:43.266Z,95.20
2019-06-08T17:42:11.772Z,97.60
2019-06-08T17:44:40.412Z,99.70
2019-06-08T17:49:59.335Z,98.30
2019-06-08T17:52:28.234Z,99.60
2019-06-08T17:54:57.136Z,99.80
2019-06-08T17:57:38.922Z,99.70
2019-06-08T17:59:55.807Z,99.70
2019-06-08T18:02:28.192Z,99.90
2019-06-08T18:04:54.846Z,99.90
2019-06-08T18:07:23.302Z,99.80
2019-06-08T18:09:52.128Z,99.50
2019-06-08T18:12:20.681Z,99.90
2019-06-08T18:14:49.233Z,99.90
2019-06-08T18:17:17.902Z,99.60
2019-06-08T18:19:49.510Z,99.90
2019-06-08T18:22:18.704Z,99.90
2019-06-08T18:24:47.906Z,99.70
2019-06-08T18:27:18.050Z,99.90
2019-06-08T18:29:48.707Z,99.90
2019-06-08T18:32:18.120Z,99.90
2019-06-08T18:34:48.074Z,99.90
2019-06-08T18:37:18.118Z,99.90
2019-06-08T18:39:49.055Z,99.90
2019-06-08T18:42:18.010Z,99.90
2019-06-08T18:44:48.525Z,99.90
2019-06-08T18:47:18.481Z,99.90
2019-06-08T18:49:49.201Z,99.90
2019-06-08T18:52:18.007Z,99.90
2019-06-08T18:54:49.268Z,99.90
2019-06-08T18:57:17.627Z,99.90
2019-06-08T18:59:50.608Z,99.90
2019-06-08T19:02:18.044Z,99.90
2019-06-08T19:04:48.088Z,99.90
2019-06-08T19:07:17.587Z,99.90
2019-06-08T19:09:48.043Z,99.90
2019-06-08T19:12:16.885Z,99.90
2019-06-08T19:14:47.966Z,99.90
2019-06-08T19:17:17.518Z,99.90
2019-06-08T19:19:51.895Z,99.90
2019-06-08T19:22:19.166Z,99.90
2019-06-08T19:24:50.453Z,99.90
2019-06-08T19:27:18.484Z,99.90
2019-06-08T19:29:49.951Z,99.90
2019-06-08T19:32:17.630Z,99.90
2019-06-08T19:34:52.341Z,99.90
2019-06-08T19:37:17.254Z,99.90
2019-06-08T19:39:47.704Z,99.90
2019-06-08T19:42:17.536Z,99.90
2019-06-08T19:44:55.772Z,99.90
2019-06-08T19:47:17.606Z,99.90
2019-06-08T19:49:47.734Z,99.90
2019-06-08T19:52:18.286Z,99.90
2019-06-08T19:54:52.111Z,99.90
2019-06-08T19:57:17.471Z,99.90
2019-06-08T19:59:46.033Z,99.90
2019-06-08T20:02:14.429Z,99.90
2019-06-08T20:04:43.099Z,99.90
2019-06-08T20:07:11.484Z,99.90
2019-06-08T20:09:41.003Z,99.90
2019-06-08T20:12:09.522Z,99.90
2019-06-08T20:14:38.234Z,99.90
2019-06-08T20:17:08.120Z,99.90
2019-06-08T20:19:37.383Z,99.90
2019-06-08T20:22:07.507Z,99.90
2019-06-08T20:24:37.752Z,99.90
2019-06-08T20:27:07.715Z,99.90
2019-06-08T20:29:38.125Z,99.90
2019-06-08T20:32:08.480Z,99.90
2019-06-08T20:34:38.110Z,99.90
2019-06-08T20:37:08.096Z,99.90
2019-06-08T20:39:38.203Z,99.90
2019-06-08T20:42:11.633Z,99.90
2019-06-08T20:44:38.224Z,99.90
2019-06-08T20:47:08.494Z,99.90
2019-06-08T20:49:37.376Z,99.90
2019-06-08T20:52:08.587Z,99.90
2019-06-08T20:54:36.896Z,99.90
2019-06-08T20:57:07.602Z,99.90
2019-06-08T20:59:39.531Z,99.90
2019-06-08T21:02:08.379Z,99.90
2019-06-08T21:04:38.299Z,99.90
2019-06-08T21:07:08.130Z,99.90
2019-06-08T21:09:37.060Z,99.90
2019-06-08T21:12:06.291Z,99.90
2019-06-08T21:14:34.788Z,99.90
2019-06-08T21:17:03.304Z,99.90
2019-06-08T21:19:32.150Z,99.90
2019-06-08T21:22:00.944Z,99.90
2019-06-08T21:24:29.484Z,99.90
2019-06-08T21:27:00.611Z,99.90
2019-06-08T21:29:46.592Z,99.90
2019-06-08T21:32:01.797Z,99.90
2019-06-08T21:34:29.160Z,99.90
2019-06-08T21:37:00.667Z,99.90
2019-06-08T21:39:28.367Z,99.90
2019-06-08T21:42:01.357Z,99.90
2019-06-08T21:44:27.956Z,99.90
2019-06-08T21:46:59.873Z,99.90
2019-06-08T21:49:27.673Z,99.90
2019-06-08T21:51:59.646Z,99.90
2019-06-08T21:54:27.178Z,99.90
2019-06-08T21:56:58.904Z,99.90
2019-06-08T21:59:26.073Z,99.90
2019-06-08T22:01:56.912Z,99.90
2019-06-08T22:04:24.942Z,99.90
2019-06-08T22:06:54.098Z,99.90
2019-06-08T22:09:22.606Z,99.90
2019-06-08T22:11:52.528Z,99.90
2019-06-08T22:14:21.176Z,99.90
2019-06-08T22:16:50.846Z,99.90
2019-06-08T22:19:19.955Z,99.90
2019-06-08T22:21:48.346Z,99.90
2019-06-08T22:24:17.211Z,99.90
2019-06-08T22:26:45.707Z,99.90
2019-06-08T22:29:14.372Z,99.90
2019-06-08T22:31:43.075Z,99.90
2019-06-08T22:34:11.479Z,99.90
2019-06-08T22:36:39.870Z,99.90
2019-06-08T22:39:08.396Z,99.90
2019-06-08T22:41:37.278Z,99.90
2019-06-08T22:44:08.090Z,99.90
2019-06-08T22:46:37.504Z,99.90
2019-06-08T22:49:08.103Z,99.90
2019-06-08T22:51:38.238Z,99.90
2019-06-08T22:54:07.981Z,99.90
2019-06-08T22:56:37.235Z,99.90
2019-06-08T22:59:08.474Z,99.90
2019-06-08T23:01:38.192Z,99.90
2019-06-08T23:04:08.689Z,99.90
2019-06-08T23:06:38.478Z,99.90
2019-06-08T23:09:08.712Z,99.90
2019-06-08T23:11:37.623Z,99.90
2019-06-08T23:14:12.762Z,99.90
2019-06-08T23:16:36.617Z,99.90
2019-06-08T23:19:07.567Z,99.90
2019-06-08T23:21:38.099Z,99.90
2019-06-08T23:24:08.403Z,99.90
2019-06-08T23:26:37.244Z,99.90
2019-06-08T23:29:07.776Z,99.90
2019-06-08T23:31:38.616Z,99.90
2019-06-08T23:34:09.849Z,99.90
2019-06-08T23:36:48.396Z,99.90
2019-06-08T23:39:08.018Z,99.90
2019-06-08T23:41:37.740Z,99.90
2019-06-08T23:44:06.203Z,99.90
2019-06-08T23:46:34.863Z,99.90
2019-06-08T23:49:04.313Z,99.90
2019-06-08T23:51:33.411Z,99.90
2019-06-08T23:54:03.767Z,99.90
2019-06-08T23:56:31.970Z,99.90
2019-06-08T23:59:01.357Z,99.90
